sensor_id;sensor_type;location;lat;lon;timestamp;P1;durP1;ratioP1;P2;durP2;ratioP2
64500;SDS011;50874;24.150;-110.320;2023-03-14T00:03:41;5.97;;;1.30;;
64500;SDS011;50874;24.150;-110.320;2023-03-14T00:06:08;9.88;;;2.65;;
64500;SDS011;50874;24.150;-110.320;2023-03-14T00:08:36;3.85;;;1.15;;
64500;SDS011;50874;24.150;-110.320;2023-03-14T00:11:36;3.55;;;1.30;;
64500;SDS011;50874;24.150;-110.320;2023-03-14T00:13:56;8.40;;;1.65;;
64500;SDS011;50874;24.150;-110.320;2023-03-14T00:16:23;14.20;;;2.20;;
64500;SDS011;50874;24.150;-110.320;2023-03-14T00:18:49;6.85;;;1.83;;
64500;SDS011;50874;24.150;-110.320;2023-03-14T00:21:16;17.85;;;2.47;;
64500;SDS011;50874;24.150;-110.320;2023-03-14T00:23:42;20.52;;;3.45;;
64500;SDS011;50874;24.150;-110.320;2023-03-14T00:26:10;16.10;;;2.65;;
64500;SDS011;50874;24.150;-110.320;2023-03-14T00:28:38;18.85;;;3.28;;
64500;SDS011;50874;24.150;-110.320;2023-03-14T00:31:06;160.05;;;21.33;;
64500;SDS011;50874;24.150;-110.320;2023-03-14T00:33:34;10.13;;;1.67;;
64500;SDS011;50874;24.150;-110.320;2023-03-14T00:36:04;8.50;;;2.05;;
64500;SDS011;50874;24.150;-110.320;2023-03-14T00:38:34;7.22;;;1.75;;
64500;SDS011;50874;24.150;-110.320;2023-03-14T00:41:08;14.02;;;1.88;;
64500;SDS011;50874;24.150;-110.320;2023-03-14T00:43:39;6.32;;;1.55;;
64500;SDS011;50874;24.150;-110.320;2023-03-14T00:46:06;3.78;;;1.15;;
64500;SDS011;50874;24.150;-110.320;2023-03-14T00:48:33;8.50;;;1.60;;
64500;SDS011;50874;24.150;-110.320;2023-03-14T00:51:01;16.10;;;1.58;;
64500;SDS011;50874;24.150;-110.320;2023-03-14T00:53:28;13.48;;;2.08;;
64500;SDS011;50874;24.150;-110.320;2023-03-14T00:55:55;18.77;;;3.45;;
64500;SDS011;50874;24.150;-110.320;2023-03-14T00:58:21;40.75;;;3.88;;
64500;SDS011;50874;24.150;-110.320;2023-03-14T01:00:49;27.98;;;4.15;;
64500;SDS011;50874;24.150;-110.320;2023-03-14T01:03:15;20.45;;;3.58;;
64500;SDS011;50874;24.150;-110.320;2023-03-14T01:05:42;34.22;;;5.05;;
64500;SDS011;50874;24.150;-110.320;2023-03-14T01:08:08;44.55;;;4.88;;
64500;SDS011;50874;24.150;-110.320;2023-03-14T01:10:40;68.35;;;8.13;;
64500;SDS011;50874;24.150;-110.320;2023-03-14T01:13:07;40.45;;;4.03;;
64500;SDS011;50874;24.150;-110.320;2023-03-14T01:15:37;50.28;;;5.68;;
64500;SDS011;50874;24.150;-110.320;2023-03-14T01:18:04;44.30;;;4.50;;
64500;SDS011;50874;24.150;-110.320;2023-03-14T01:20:31;44.85;;;4.57;;
64500;SDS011;50874;24.150;-110.320;2023-03-14T01:23:02;43.35;;;5.90;;
64500;SDS011;50874;24.150;-110.320;2023-03-14T01:25:29;57.17;;;5.93;;
64500;SDS011;50874;24.150;-110.320;2023-03-14T01:27:55;77.47;;;6.80;;
64500;SDS011;50874;24.150;-110.320;2023-03-14T01:30:22;63.75;;;7.10;;
64500;SDS011;50874;24.150;-110.320;2023-03-14T01:32:48;60.67;;;6.93;;
64500;SDS011;50874;24.150;-110.320;2023-03-14T01:35:15;60.08;;;7.82;;
64500;SDS011;50874;24.150;-110.320;2023-03-14T01:37:42;46.10;;;5.70;;
64500;SDS011;50874;24.150;-110.320;2023-03-14T01:40:10;46.85;;;7.07;;
64500;SDS011;50874;24.150;-110.320;2023-03-14T01:42:43;41.28;;;5.07;;
64500;SDS011;50874;24.150;-110.320;2023-03-14T01:45:53;39.45;;;5.00;;
64500;SDS011;50874;24.150;-110.320;2023-03-14T01:48:22;32.60;;;4.18;;
64500;SDS011;50874;24.150;-110.320;2023-03-14T01:50:48;15.95;;;2.30;;
64500;SDS011;50874;24.150;-110.320;2023-03-14T01:53:15;68.47;;;6.30;;
64500;SDS011;50874;24.150;-110.320;2023-03-14T01:55:42;114.93;;;10.32;;
64500;SDS011;50874;24.150;-110.320;2023-03-14T01:58:09;162.68;;;15.00;;
64500;SDS011;50874;24.150;-110.320;2023-03-14T02:00:35;30.02;;;3.53;;
64500;SDS011;50874;24.150;-110.320;2023-03-14T02:03:04;99.32;;;12.98;;
64500;SDS011;50874;24.150;-110.320;2023-03-14T02:05:37;12.13;;;1.90;;
64500;SDS011;50874;24.150;-110.320;2023-03-14T02:08:07;34.28;;;4.20;;
64500;SDS011;50874;24.150;-110.320;2023-03-14T02:10:39;26.75;;;3.85;;
64500;SDS011;50874;24.150;-110.320;2023-03-14T02:13:11;32.40;;;4.70;;
64500;SDS011;50874;24.150;-110.320;2023-03-14T02:15:40;24.40;;;1.80;;
64500;SDS011;50874;24.150;-110.320;2023-03-14T02:18:08;5.50;;;1.30;;
64500;SDS011;50874;24.150;-110.320;2023-03-14T02:23:32;49.97;;;6.32;;
64500;SDS011;50874;24.150;-110.320;2023-03-14T02:26:17;88.00;;;8.45;;
64500;SDS011;50874;24.150;-110.320;2023-03-14T02:29:00;13.98;;;1.63;;
64500;SDS011;50874;24.150;-110.320;2023-03-14T02:31:26;102.25;;;12.65;;
64500;SDS011;50874;24.150;-110.320;2023-03-14T02:33:53;28.77;;;3.70;;
64500;SDS011;50874;24.150;-110.320;2023-03-14T02:36:22;9.63;;;1.65;;
64500;SDS011;50874;24.150;-110.320;2023-03-14T02:41:21;14.82;;;2.20;;
64500;SDS011;50874;24.150;-110.320;2023-03-14T02:43:48;4.00;;;1.13;;
64500;SDS011;50874;24.150;-110.320;2023-03-14T02:46:18;8.25;;;1.52;;
64500;SDS011;50874;24.150;-110.320;2023-03-14T02:48:48;49.65;;;4.43;;
64500;SDS011;50874;24.150;-110.320;2023-03-14T02:51:21;28.77;;;4.93;;
64500;SDS011;50874;24.150;-110.320;2023-03-14T02:53:49;55.33;;;6.18;;
64500;SDS011;50874;24.150;-110.320;2023-03-14T02:56:15;38.47;;;6.22;;
64500;SDS011;50874;24.150;-110.320;2023-03-14T02:58:42;51.90;;;7.63;;
64500;SDS011;50874;24.150;-110.320;2023-03-14T03:01:08;44.65;;;5.95;;
64500;SDS011;50874;24.150;-110.320;2023-03-14T03:03:34;48.15;;;6.18;;
64500;SDS011;50874;24.150;-110.320;2023-03-14T03:06:01;30.17;;;4.93;;
64500;SDS011;50874;24.150;-110.320;2023-03-14T03:08:28;45.70;;;5.30;;
64500;SDS011;50874;24.150;-110.320;2023-03-14T03:10:56;30.38;;;7.78;;
64500;SDS011;50874;24.150;-110.320;2023-03-14T03:13:23;34.92;;;8.38;;
64500;SDS011;50874;24.150;-110.320;2023-03-14T03:15:50;29.45;;;8.77;;
64500;SDS011;50874;24.150;-110.320;2023-03-14T03:18:16;22.52;;;5.10;;
64500;SDS011;50874;24.150;-110.320;2023-03-14T03:20:43;28.60;;;4.60;;
64500;SDS011;50874;24.150;-110.320;2023-03-14T03:23:11;32.20;;;6.03;;
64500;SDS011;50874;24.150;-110.320;2023-03-14T03:25:37;37.53;;;6.47;;
64500;SDS011;50874;24.150;-110.320;2023-03-14T03:28:04;12.70;;;4.60;;
64500;SDS011;50874;24.150;-110.320;2023-03-14T03:30:39;37.67;;;6.72;;
64500;SDS011;50874;24.150;-110.320;2023-03-14T03:33:05;40.80;;;7.20;;
64500;SDS011;50874;24.150;-110.320;2023-03-14T03:35:33;41.25;;;9.55;;
64500;SDS011;50874;24.150;-110.320;2023-03-14T03:37:59;52.15;;;16.77;;
64500;SDS011;50874;24.150;-110.320;2023-03-14T03:40:26;56.75;;;18.20;;
64500;SDS011;50874;24.150;-110.320;2023-03-14T03:42:52;36.58;;;13.93;;
64500;SDS011;50874;24.150;-110.320;2023-03-14T03:45:19;36.92;;;11.80;;
64500;SDS011;50874;24.150;-110.320;2023-03-14T03:47:45;47.55;;;12.77;;
64500;SDS011;50874;24.150;-110.320;2023-03-14T03:50:12;158.48;;;24.35;;
64500;SDS011;50874;24.150;-110.320;2023-03-14T03:52:38;42.88;;;7.22;;
64500;SDS011;50874;24.150;-110.320;2023-03-14T03:55:05;40.85;;;7.85;;
64500;SDS011;50874;24.150;-110.320;2023-03-14T03:57:32;30.25;;;6.05;;
64500;SDS011;50874;24.150;-110.320;2023-03-14T03:59:58;36.40;;;5.32;;
64500;SDS011;50874;24.150;-110.320;2023-03-14T04:02:24;22.60;;;3.90;;
64500;SDS011;50874;24.150;-110.320;2023-03-14T04:04:51;50.88;;;5.72;;
64500;SDS011;50874;24.150;-110.320;2023-03-14T04:07:17;38.53;;;5.88;;
64500;SDS011;50874;24.150;-110.320;2023-03-14T04:09:44;25.13;;;3.83;;
64500;SDS011;50874;24.150;-110.320;2023-03-14T04:12:10;26.40;;;5.28;;
64500;SDS011;50874;24.150;-110.320;2023-03-14T04:14:37;29.98;;;4.63;;
64500;SDS011;50874;24.150;-110.320;2023-03-14T04:17:06;30.73;;;4.50;;
64500;SDS011;50874;24.150;-110.320;2023-03-14T04:19:33;30.80;;;4.75;;
64500;SDS011;50874;24.150;-110.320;2023-03-14T04:21:59;69.35;;;8.38;;
64500;SDS011;50874;24.150;-110.320;2023-03-14T04:24:26;36.58;;;5.85;;
64500;SDS011;50874;24.150;-110.320;2023-03-14T04:26:52;35.60;;;5.22;;
64500;SDS011;50874;24.150;-110.320;2023-03-14T04:29:19;42.83;;;6.18;;
64500;SDS011;50874;24.150;-110.320;2023-03-14T04:31:45;48.22;;;5.72;;
64500;SDS011;50874;24.150;-110.320;2023-03-14T04:34:12;44.90;;;7.10;;
64500;SDS011;50874;24.150;-110.320;2023-03-14T04:36:38;55.45;;;7.60;;
64500;SDS011;50874;24.150;-110.320;2023-03-14T04:39:04;88.13;;;13.70;;
64500;SDS011;50874;24.150;-110.320;2023-03-14T04:41:31;133.32;;;15.18;;
64500;SDS011;50874;24.150;-110.320;2023-03-14T04:43:57;79.97;;;11.35;;
64500;SDS011;50874;24.150;-110.320;2023-03-14T04:46:24;87.13;;;10.65;;
64500;SDS011;50874;24.150;-110.320;2023-03-14T04:48:50;52.55;;;9.23;;
64500;SDS011;50874;24.150;-110.320;2023-03-14T04:51:17;168.25;;;17.27;;
64500;SDS011;50874;24.150;-110.320;2023-03-14T04:53:43;197.75;;;25.00;;
64500;SDS011;50874;24.150;-110.320;2023-03-14T04:56:10;271.63;;;32.45;;
64500;SDS011;50874;24.150;-110.320;2023-03-14T04:58:38;263.40;;;33.03;;
64500;SDS011;50874;24.150;-110.320;2023-03-14T05:01:05;211.13;;;26.45;;
64500;SDS011;50874;24.150;-110.320;2023-03-14T05:03:32;178.95;;;24.00;;
64500;SDS011;50874;24.150;-110.320;2023-03-14T05:05:58;183.95;;;22.77;;
64500;SDS011;50874;24.150;-110.320;2023-03-14T05:08:26;166.82;;;22.95;;
64500;SDS011;50874;24.150;-110.320;2023-03-14T05:10:55;194.68;;;24.35;;
64500;SDS011;50874;24.150;-110.320;2023-03-14T05:13:23;164.73;;;21.77;;
64500;SDS011;50874;24.150;-110.320;2023-03-14T05:15:49;178.73;;;23.13;;
64500;SDS011;50874;24.150;-110.320;2023-03-14T05:18:16;180.05;;;24.60;;
64500;SDS011;50874;24.150;-110.320;2023-03-14T05:20:43;152.63;;;23.95;;
64500;SDS011;50874;24.150;-110.320;2023-03-14T05:23:09;151.38;;;20.17;;
64500;SDS011;50874;24.150;-110.320;2023-03-14T05:25:36;167.13;;;23.27;;
64500;SDS011;50874;24.150;-110.320;2023-03-14T05:28:03;164.50;;;24.35;;
64500;SDS011;50874;24.150;-110.320;2023-03-14T05:30:29;191.95;;;22.52;;
64500;SDS011;50874;24.150;-110.320;2023-03-14T05:32:57;180.82;;;23.30;;
64500;SDS011;50874;24.150;-110.320;2023-03-14T05:35:24;180.55;;;22.70;;
64500;SDS011;50874;24.150;-110.320;2023-03-14T05:37:50;174.23;;;22.48;;
64500;SDS011;50874;24.150;-110.320;2023-03-14T05:40:16;136.20;;;18.08;;
64500;SDS011;50874;24.150;-110.320;2023-03-14T05:42:43;145.43;;;19.52;;
64500;SDS011;50874;24.150;-110.320;2023-03-14T05:45:09;138.88;;;18.95;;
64500;SDS011;50874;24.150;-110.320;2023-03-14T05:47:36;87.53;;;13.25;;
64500;SDS011;50874;24.150;-110.320;2023-03-14T05:50:03;83.68;;;10.35;;
64500;SDS011;50874;24.150;-110.320;2023-03-14T05:52:29;65.43;;;9.52;;
64500;SDS011;50874;24.150;-110.320;2023-03-14T05:54:56;99.22;;;11.57;;
64500;SDS011;50874;24.150;-110.320;2023-03-14T05:57:22;70.70;;;9.95;;
64500;SDS011;50874;24.150;-110.320;2023-03-14T05:59:49;78.93;;;8.77;;
64500;SDS011;50874;24.150;-110.320;2023-03-14T06:02:16;94.25;;;12.10;;
64500;SDS011;50874;24.150;-110.320;2023-03-14T06:04:42;73.90;;;9.35;;
64500;SDS011;50874;24.150;-110.320;2023-03-14T06:07:08;87.70;;;8.82;;
64500;SDS011;50874;24.150;-110.320;2023-03-14T06:09:35;56.22;;;6.55;;
64500;SDS011;50874;24.150;-110.320;2023-03-14T06:12:01;73.97;;;7.72;;
64500;SDS011;50874;24.150;-110.320;2023-03-14T06:14:28;42.25;;;5.65;;
64500;SDS011;50874;24.150;-110.320;2023-03-14T06:16:55;29.25;;;4.05;;
64500;SDS011;50874;24.150;-110.320;2023-03-14T06:19:21;50.97;;;5.55;;
64500;SDS011;50874;24.150;-110.320;2023-03-14T06:21:48;46.97;;;5.07;;
64500;SDS011;50874;24.150;-110.320;2023-03-14T06:24:15;35.83;;;3.78;;
64500;SDS011;50874;24.150;-110.320;2023-03-14T06:26:41;41.72;;;4.43;;
64500;SDS011;50874;24.150;-110.320;2023-03-14T06:29:08;36.03;;;6.07;;
64500;SDS011;50874;24.150;-110.320;2023-03-14T06:31:35;34.13;;;6.03;;
64500;SDS011;50874;24.150;-110.320;2023-03-14T06:34:01;21.42;;;3.90;;
64500;SDS011;50874;24.150;-110.320;2023-03-14T06:36:28;34.05;;;3.55;;
64500;SDS011;50874;24.150;-110.320;2023-03-14T06:38:54;24.05;;;4.30;;
64500;SDS011;50874;24.150;-110.320;2023-03-14T06:41:21;13.43;;;2.65;;
64500;SDS011;50874;24.150;-110.320;2023-03-14T06:43:49;28.85;;;4.05;;
64500;SDS011;50874;24.150;-110.320;2023-03-14T06:46:15;30.17;;;2.75;;
64500;SDS011;50874;24.150;-110.320;2023-03-14T06:48:42;34.05;;;3.75;;
64500;SDS011;50874;24.150;-110.320;2023-03-14T06:51:08;31.38;;;4.22;;
64500;SDS011;50874;24.150;-110.320;2023-03-14T06:53:35;20.77;;;3.63;;
64500;SDS011;50874;24.150;-110.320;2023-03-14T06:56:01;27.77;;;4.53;;
64500;SDS011;50874;24.150;-110.320;2023-03-14T06:58:28;52.38;;;4.72;;
64500;SDS011;50874;24.150;-110.320;2023-03-14T07:00:54;25.38;;;3.90;;
64500;SDS011;50874;24.150;-110.320;2023-03-14T07:03:22;20.40;;;4.38;;
64500;SDS011;50874;24.150;-110.320;2023-03-14T07:05:49;27.88;;;4.00;;
64500;SDS011;50874;24.150;-110.320;2023-03-14T07:08:15;24.77;;;4.00;;
64500;SDS011;50874;24.150;-110.320;2023-03-14T07:10:42;28.50;;;4.63;;
64500;SDS011;50874;24.150;-110.320;2023-03-14T07:13:08;26.67;;;3.92;;
64500;SDS011;50874;24.150;-110.320;2023-03-14T07:15:35;38.25;;;4.32;;
64500;SDS011;50874;24.150;-110.320;2023-03-14T07:18:01;17.90;;;3.05;;
64500;SDS011;50874;24.150;-110.320;2023-03-14T07:20:28;17.33;;;2.40;;
64500;SDS011;50874;24.150;-110.320;2023-03-14T07:22:57;21.00;;;3.28;;
64500;SDS011;50874;24.150;-110.320;2023-03-14T07:25:25;17.92;;;3.72;;
64500;SDS011;50874;24.150;-110.320;2023-03-14T07:27:51;18.80;;;3.70;;
64500;SDS011;50874;24.150;-110.320;2023-03-14T07:30:18;23.73;;;3.42;;
64500;SDS011;50874;24.150;-110.320;2023-03-14T07:32:44;22.17;;;3.47;;
64500;SDS011;50874;24.150;-110.320;2023-03-14T07:35:11;27.10;;;4.10;;
64500;SDS011;50874;24.150;-110.320;2023-03-14T07:37:37;33.60;;;4.20;;
64500;SDS011;50874;24.150;-110.320;2023-03-14T07:40:04;29.83;;;4.65;;
64500;SDS011;50874;24.150;-110.320;2023-03-14T07:42:32;43.10;;;5.72;;
64500;SDS011;50874;24.150;-110.320;2023-03-14T07:44:58;44.72;;;6.70;;
64500;SDS011;50874;24.150;-110.320;2023-03-14T07:47:25;56.55;;;7.47;;
64500;SDS011;50874;24.150;-110.320;2023-03-14T07:49:51;34.72;;;8.10;;
64500;SDS011;50874;24.150;-110.320;2023-03-14T07:52:18;44.15;;;6.97;;
64500;SDS011;50874;24.150;-110.320;2023-03-14T07:54:44;47.22;;;7.72;;
64500;SDS011;50874;24.150;-110.320;2023-03-14T07:57:11;43.58;;;7.43;;
64500;SDS011;50874;24.150;-110.320;2023-03-14T07:59:37;62.25;;;8.60;;
64500;SDS011;50874;24.150;-110.320;2023-03-14T08:02:03;53.13;;;8.10;;
64500;SDS011;50874;24.150;-110.320;2023-03-14T08:04:34;63.10;;;8.55;;
64500;SDS011;50874;24.150;-110.320;2023-03-14T08:07:01;66.72;;;8.07;;
64500;SDS011;50874;24.150;-110.320;2023-03-14T08:09:28;54.22;;;8.13;;
64500;SDS011;50874;24.150;-110.320;2023-03-14T08:11:54;47.90;;;6.88;;
64500;SDS011;50874;24.150;-110.320;2023-03-14T08:14:21;76.30;;;8.73;;
64500;SDS011;50874;24.150;-110.320;2023-03-14T08:16:50;53.97;;;9.80;;
64500;SDS011;50874;24.150;-110.320;2023-03-14T08:19:17;56.90;;;8.32;;
64500;SDS011;50874;24.150;-110.320;2023-03-14T08:21:44;69.68;;;8.20;;
64500;SDS011;50874;24.150;-110.320;2023-03-14T08:24:10;69.60;;;10.38;;
64500;SDS011;50874;24.150;-110.320;2023-03-14T08:26:37;101.93;;;13.35;;
64500;SDS011;50874;24.150;-110.320;2023-03-14T08:29:03;110.53;;;11.63;;
64500;SDS011;50874;24.150;-110.320;2023-03-14T08:31:30;63.15;;;8.80;;
64500;SDS011;50874;24.150;-110.320;2023-03-14T08:33:59;53.92;;;8.68;;
64500;SDS011;50874;24.150;-110.320;2023-03-14T08:36:27;49.85;;;7.13;;
64500;SDS011;50874;24.150;-110.320;2023-03-14T08:38:53;19.00;;;4.70;;
64500;SDS011;50874;24.150;-110.320;2023-03-14T08:41:20;30.38;;;5.05;;
64500;SDS011;50874;24.150;-110.320;2023-03-14T08:43:46;61.42;;;8.05;;
64500;SDS011;50874;24.150;-110.320;2023-03-14T08:46:13;33.08;;;5.97;;
64500;SDS011;50874;24.150;-110.320;2023-03-14T08:48:39;39.67;;;5.45;;
64500;SDS011;50874;24.150;-110.320;2023-03-14T08:51:10;61.70;;;10.23;;
64500;SDS011;50874;24.150;-110.320;2023-03-14T08:53:39;58.22;;;7.82;;
64500;SDS011;50874;24.150;-110.320;2023-03-14T08:56:06;45.63;;;6.35;;
64500;SDS011;50874;24.150;-110.320;2023-03-14T08:58:35;43.60;;;5.82;;
64500;SDS011;50874;24.150;-110.320;2023-03-14T09:01:05;27.85;;;4.55;;
64500;SDS011;50874;24.150;-110.320;2023-03-14T09:03:33;25.35;;;3.75;;
64500;SDS011;50874;24.150;-110.320;2023-03-14T09:06:07;14.77;;;3.40;;
64500;SDS011;50874;24.150;-110.320;2023-03-14T09:08:35;19.40;;;3.00;;
64500;SDS011;50874;24.150;-110.320;2023-03-14T09:11:02;19.20;;;3.28;;
64500;SDS011;50874;24.150;-110.320;2023-03-14T09:13:28;25.15;;;3.60;;
64500;SDS011;50874;24.150;-110.320;2023-03-14T09:15:55;29.70;;;3.25;;
64500;SDS011;50874;24.150;-110.320;2023-03-14T09:18:22;16.77;;;3.47;;
64500;SDS011;50874;24.150;-110.320;2023-03-14T09:20:49;19.83;;;2.97;;
64500;SDS011;50874;24.150;-110.320;2023-03-14T09:23:15;21.23;;;3.50;;
64500;SDS011;50874;24.150;-110.320;2023-03-14T09:25:42;20.02;;;2.92;;
64500;SDS011;50874;24.150;-110.320;2023-03-14T09:28:08;18.98;;;4.13;;
64500;SDS011;50874;24.150;-110.320;2023-03-14T09:30:34;18.17;;;2.65;;
64500;SDS011;50874;24.150;-110.320;2023-03-14T09:33:01;15.75;;;3.35;;
64500;SDS011;50874;24.150;-110.320;2023-03-14T09:35:27;23.73;;;3.33;;
64500;SDS011;50874;24.150;-110.320;2023-03-14T09:37:54;22.02;;;3.58;;
64500;SDS011;50874;24.150;-110.320;2023-03-14T09:40:21;21.00;;;3.10;;
64500;SDS011;50874;24.150;-110.320;2023-03-14T09:42:52;12.35;;;3.00;;
64500;SDS011;50874;24.150;-110.320;2023-03-14T09:45:25;20.20;;;3.22;;
64500;SDS011;50874;24.150;-110.320;2023-03-14T09:47:54;23.35;;;3.20;;
64500;SDS011;50874;24.150;-110.320;2023-03-14T09:50:22;18.48;;;4.15;;
64500;SDS011;50874;24.150;-110.320;2023-03-14T09:52:51;16.33;;;3.53;;
64500;SDS011;50874;24.150;-110.320;2023-03-14T09:55:23;17.58;;;2.67;;
64500;SDS011;50874;24.150;-110.320;2023-03-14T09:57:50;23.95;;;3.63;;
64500;SDS011;50874;24.150;-110.320;2023-03-14T10:00:21;29.98;;;3.97;;
64500;SDS011;50874;24.150;-110.320;2023-03-14T10:02:53;14.43;;;3.42;;
64500;SDS011;50874;24.150;-110.320;2023-03-14T10:05:23;18.45;;;3.55;;
64500;SDS011;50874;24.150;-110.320;2023-03-14T10:07:51;16.50;;;3.08;;
64500;SDS011;50874;24.150;-110.320;2023-03-14T10:10:19;19.52;;;3.20;;
64500;SDS011;50874;24.150;-110.320;2023-03-14T10:12:47;17.17;;;3.55;;
64500;SDS011;50874;24.150;-110.320;2023-03-14T10:15:25;14.32;;;2.80;;
64500;SDS011;50874;24.150;-110.320;2023-03-14T10:17:58;18.10;;;3.50;;
64500;SDS011;50874;24.150;-110.320;2023-03-14T10:22:58;14.73;;;2.92;;
64500;SDS011;50874;24.150;-110.320;2023-03-14T10:25:35;22.92;;;2.63;;
64500;SDS011;50874;24.150;-110.320;2023-03-14T10:28:03;15.18;;;2.40;;
64500;SDS011;50874;24.150;-110.320;2023-03-14T10:30:38;16.73;;;3.08;;
64500;SDS011;50874;24.150;-110.320;2023-03-14T10:33:18;10.50;;;2.30;;
64500;SDS011;50874;24.150;-110.320;2023-03-14T10:35:53;13.32;;;2.25;;
64500;SDS011;50874;24.150;-110.320;2023-03-14T10:38:30;7.37;;;2.20;;
64500;SDS011;50874;24.150;-110.320;2023-03-14T10:41:01;10.85;;;2.33;;
64500;SDS011;50874;24.150;-110.320;2023-03-14T10:43:40;10.82;;;2.50;;
64500;SDS011;50874;24.150;-110.320;2023-03-14T10:46:17;9.90;;;2.30;;
64500;SDS011;50874;24.150;-110.320;2023-03-14T10:48:44;12.55;;;2.40;;
64500;SDS011;50874;24.150;-110.320;2023-03-14T10:54:12;15.67;;;2.27;;
64500;SDS011;50874;24.150;-110.320;2023-03-14T10:56:44;14.13;;;2.05;;
64500;SDS011;50874;24.150;-110.320;2023-03-14T10:59:21;13.73;;;1.65;;
64500;SDS011;50874;24.150;-110.320;2023-03-14T11:04:45;14.52;;;2.22;;
64500;SDS011;50874;24.150;-110.320;2023-03-14T11:07:41;8.73;;;2.25;;
64500;SDS011;50874;24.150;-110.320;2023-03-14T11:10:31;5.63;;;1.88;;
64500;SDS011;50874;24.150;-110.320;2023-03-14T11:13:03;8.32;;;1.33;;
64500;SDS011;50874;24.150;-110.320;2023-03-14T11:32:17;9.35;;;1.75;;
64500;SDS011;50874;24.150;-110.320;2023-03-14T11:34:52;6.20;;;1.30;;
64500;SDS011;50874;24.150;-110.320;2023-03-14T11:40:03;2.40;;;0.63;;
64500;SDS011;50874;24.150;-110.320;2023-03-14T11:42:32;2.25;;;0.50;;
64500;SDS011;50874;24.150;-110.320;2023-03-14T11:45:00;2.97;;;0.73;;
64500;SDS011;50874;24.150;-110.320;2023-03-14T11:52:46;1.58;;;0.85;;
64500;SDS011;50874;24.150;-110.320;2023-03-14T11:55:33;1.77;;;0.57;;
64500;SDS011;50874;24.150;-110.320;2023-03-14T11:58:03;4.50;;;0.93;;
64500;SDS011;50874;24.150;-110.320;2023-03-14T12:00:40;7.57;;;1.30;;
64500;SDS011;50874;24.150;-110.320;2023-03-14T12:06:14;8.55;;;1.30;;
64500;SDS011;50874;24.150;-110.320;2023-03-14T12:08:53;4.82;;;0.85;;
64500;SDS011;50874;24.150;-110.320;2023-03-14T12:13:53;4.65;;;1.13;;
64500;SDS011;50874;24.150;-110.320;2023-03-14T12:18:50;9.35;;;0.90;;
64500;SDS011;50874;24.150;-110.320;2023-03-14T12:21:17;4.25;;;0.73;;
64500;SDS011;50874;24.150;-110.320;2023-03-14T12:26:18;6.63;;;1.00;;
64500;SDS011;50874;24.150;-110.320;2023-03-14T12:28:52;4.47;;;0.95;;
64500;SDS011;50874;24.150;-110.320;2023-03-14T12:34:49;5.72;;;1.17;;
64500;SDS011;50874;24.150;-110.320;2023-03-14T12:37:20;3.30;;;0.80;;
64500;SDS011;50874;24.150;-110.320;2023-03-14T12:40:06;2.70;;;1.08;;
64500;SDS011;50874;24.150;-110.320;2023-03-14T12:45:25;2.70;;;1.15;;
64500;SDS011;50874;24.150;-110.320;2023-03-14T12:48:09;6.68;;;1.38;;
64500;SDS011;50874;24.150;-110.320;2023-03-14T12:51:26;9.75;;;1.75;;
64500;SDS011;50874;24.150;-110.320;2023-03-14T13:01:55;11.77;;;1.77;;
64500;SDS011;50874;24.150;-110.320;2023-03-14T13:05:00;6.28;;;1.33;;
64500;SDS011;50874;24.150;-110.320;2023-03-14T13:10:03;15.32;;;2.05;;
64500;SDS011;50874;24.150;-110.320;2023-03-14T13:15:53;39.33;;;4.22;;
64500;SDS011;50874;24.150;-110.320;2023-03-14T13:18:13;23.80;;;3.13;;
64500;SDS011;50874;24.150;-110.320;2023-03-14T13:21:24;12.00;;;2.25;;
64500;SDS011;50874;24.150;-110.320;2023-03-14T13:23:40;19.08;;;2.83;;
64500;SDS011;50874;24.150;-110.320;2023-03-14T13:26:18;26.92;;;2.90;;
64500;SDS011;50874;24.150;-110.320;2023-03-14T13:28:45;72.35;;;7.85;;
64500;SDS011;50874;24.150;-110.320;2023-03-14T13:31:20;55.03;;;6.38;;
64500;SDS011;50874;24.150;-110.320;2023-03-14T13:33:59;72.65;;;7.55;;
64500;SDS011;50874;24.150;-110.320;2023-03-14T13:36:33;144.13;;;14.70;;
64500;SDS011;50874;24.150;-110.320;2023-03-14T13:39:02;360.25;;;46.88;;
64500;SDS011;50874;24.150;-110.320;2023-03-14T13:41:30;106.47;;;15.35;;
64500;SDS011;50874;24.150;-110.320;2023-03-14T13:44:05;217.75;;;32.35;;
64500;SDS011;50874;24.150;-110.320;2023-03-14T13:46:34;375.60;;;40.35;;
64500;SDS011;50874;24.150;-110.320;2023-03-14T13:49:03;332.35;;;36.58;;
64500;SDS011;50874;24.150;-110.320;2023-03-14T13:51:31;233.70;;;27.38;;
64500;SDS011;50874;24.150;-110.320;2023-03-14T13:53:59;279.08;;;28.00;;
64500;SDS011;50874;24.150;-110.320;2023-03-14T13:56:27;564.63;;;57.10;;
64500;SDS011;50874;24.150;-110.320;2023-03-14T13:58:55;561.33;;;57.20;;
64500;SDS011;50874;24.150;-110.320;2023-03-14T14:01:27;335.08;;;33.45;;
64500;SDS011;50874;24.150;-110.320;2023-03-14T14:03:58;411.50;;;42.17;;
64500;SDS011;50874;24.150;-110.320;2023-03-14T14:06:36;641.92;;;71.75;;
64500;SDS011;50874;24.150;-110.320;2023-03-14T14:09:10;482.38;;;52.55;;
64500;SDS011;50874;24.150;-110.320;2023-03-14T14:11:42;330.60;;;35.83;;
64500;SDS011;50874;24.150;-110.320;2023-03-14T14:14:34;227.75;;;26.88;;
64500;SDS011;50874;24.150;-110.320;2023-03-14T14:17:05;202.52;;;24.02;;
64500;SDS011;50874;24.150;-110.320;2023-03-14T14:19:36;241.75;;;30.30;;
64500;SDS011;50874;24.150;-110.320;2023-03-14T14:22:04;286.83;;;30.35;;
64500;SDS011;50874;24.150;-110.320;2023-03-14T14:24:32;152.80;;;18.50;;
64500;SDS011;50874;24.150;-110.320;2023-03-14T14:27:13;165.10;;;19.65;;
64500;SDS011;50874;24.150;-110.320;2023-03-14T14:29:42;124.47;;;14.07;;
64500;SDS011;50874;24.150;-110.320;2023-03-14T14:34:46;127.53;;;16.13;;
64500;SDS011;50874;24.150;-110.320;2023-03-14T14:37:23;130.48;;;15.75;;
64500;SDS011;50874;24.150;-110.320;2023-03-14T14:39:57;138.00;;;15.77;;
64500;SDS011;50874;24.150;-110.320;2023-03-14T14:42:29;115.10;;;15.48;;
64500;SDS011;50874;24.150;-110.320;2023-03-14T14:44:57;90.78;;;11.77;;
64500;SDS011;50874;24.150;-110.320;2023-03-14T14:47:25;85.63;;;9.38;;
64500;SDS011;50874;24.150;-110.320;2023-03-14T14:49:54;62.13;;;8.32;;
64500;SDS011;50874;24.150;-110.320;2023-03-14T14:52:31;75.75;;;9.57;;
64500;SDS011;50874;24.150;-110.320;2023-03-14T14:55:11;66.70;;;8.02;;
64500;SDS011;50874;24.150;-110.320;2023-03-14T14:57:47;78.22;;;9.75;;
64500;SDS011;50874;24.150;-110.320;2023-03-14T15:00:20;120.50;;;12.52;;
64500;SDS011;50874;24.150;-110.320;2023-03-14T15:02:50;134.25;;;17.13;;
64500;SDS011;50874;24.150;-110.320;2023-03-14T15:05:19;44.28;;;6.68;;
64500;SDS011;50874;24.150;-110.320;2023-03-14T15:07:48;136.50;;;12.77;;
64500;SDS011;50874;24.150;-110.320;2023-03-14T15:10:16;20.98;;;2.47;;
64500;SDS011;50874;24.150;-110.320;2023-03-14T15:12:50;144.75;;;16.48;;
64500;SDS011;50874;24.150;-110.320;2023-03-14T15:15:19;75.25;;;9.55;;
64500;SDS011;50874;24.150;-110.320;2023-03-14T15:17:46;62.17;;;7.82;;
64500;SDS011;50874;24.150;-110.320;2023-03-14T15:20:44;77.80;;;8.40;;